createdAt,value
2018-12-13T00:00:20.859Z,1.85
2018-12-13T00:02:28.251Z,1.78
2018-12-13T00:04:35.780Z,1.92
2018-12-13T00:06:43.557Z,1.95
2018-12-13T00:08:55.297Z,1.98
2018-12-13T00:11:02.995Z,1.93
2018-12-13T00:13:06.228Z,1.93
2018-12-13T00:15:11.435Z,1.97
2018-12-13T00:17:16.037Z,2.22
2018-12-13T00:19:23.898Z,2.03
2018-12-13T00:21:28.943Z,1.98
2018-12-13T00:23:36.580Z,1.95
2018-12-13T00:25:41.407Z,2.05
2018-12-13T00:27:49.286Z,1.97
2018-12-13T00:30:01.383Z,1.94
2018-12-13T00:32:09.268Z,1.95
2018-12-13T00:36:20.993Z,2.13
2018-12-13T00:38:32.709Z,2.38
2018-12-13T00:40:37.499Z,2.46
2018-12-13T00:42:45.295Z,2.46
2018-12-13T00:44:50.215Z,2.51
2018-12-13T00:46:57.658Z,2.33
2018-12-13T00:49:02.560Z,2.57
2018-12-13T00:51:09.878Z,2.27
2018-12-13T00:53:17.646Z,2.21
2018-12-13T00:55:25.562Z,2.12
2018-12-13T00:57:32.868Z,2.06
2018-12-13T00:59:40.662Z,2.16
2018-12-13T01:01:45.366Z,2.19
2018-12-13T01:03:53.059Z,2.26
2018-12-13T01:06:00.758Z,2.15
2018-12-13T01:08:05.960Z,2.13
2018-12-13T01:10:10.436Z,2.17
2018-12-13T01:12:19.000Z,2.14
2018-12-13T01:14:24.161Z,2.05
2018-12-13T01:16:36.847Z,2.10
2018-12-13T01:18:44.143Z,2.10
2018-12-13T01:20:49.152Z,2.09
2018-12-13T01:22:56.731Z,2.11
2018-12-13T01:24:59.656Z,2.10
2018-12-13T01:27:04.438Z,2.17
2018-12-13T01:29:12.219Z,2.49
2018-12-13T01:31:16.832Z,2.73
2018-12-13T01:33:24.498Z,2.80
2018-12-13T01:37:36.282Z,2.65
2018-12-13T01:39:43.739Z,2.57
2018-12-13T01:41:48.735Z,2.46
2018-12-13T01:43:56.319Z,2.56
2018-12-13T01:45:59.267Z,2.64
2018-12-13T01:48:11.998Z,2.53
2018-12-13T01:50:19.697Z,2.59
2018-12-13T01:52:27.471Z,2.48
2018-12-13T01:54:35.038Z,2.51
2018-12-13T01:56:40.106Z,2.50
2018-12-13T01:58:51.914Z,2.46
2018-12-13T02:00:56.655Z,2.56
2018-12-13T02:03:01.433Z,2.43
2018-12-13T02:05:09.027Z,2.32
2018-12-13T02:07:16.825Z,2.36
2018-12-13T02:09:22.087Z,2.33
2018-12-13T02:11:29.687Z,2.34
2018-12-13T02:13:34.332Z,2.43
2018-12-13T02:15:41.921Z,2.35
2018-12-13T02:17:47.256Z,2.40
2018-12-13T02:19:54.750Z,2.27
2018-12-13T02:22:02.659Z,2.27
2018-12-13T02:24:10.926Z,2.22
2018-12-13T02:26:15.451Z,2.60
2018-12-13T02:28:20.454Z,2.47
2018-12-13T02:30:32.771Z,2.50
2018-12-13T02:32:40.253Z,2.66
2018-12-13T02:34:45.307Z,2.53
2018-12-13T02:38:56.577Z,2.35
2018-12-13T02:41:04.203Z,2.44
2018-12-13T02:43:09.042Z,2.50
2018-12-13T02:45:21.347Z,2.32
2018-12-13T02:47:26.471Z,2.38
2018-12-13T02:49:31.872Z,2.28
2018-12-13T02:51:36.939Z,2.26
2018-12-13T02:53:41.635Z,2.33
2018-12-13T02:55:46.363Z,2.36
2018-12-13T02:57:51.340Z,2.30
2018-12-13T02:59:59.382Z,2.32
2018-12-13T03:02:04.173Z,2.53
2018-12-13T03:04:16.267Z,2.59
2018-12-13T03:06:21.025Z,2.44
2018-12-13T03:08:29.319Z,2.64
2018-12-13T03:10:37.264Z,2.59
2018-12-13T03:12:49.008Z,2.66
2018-12-13T03:14:56.311Z,2.84
2018-12-13T03:17:01.540Z,2.69
2018-12-13T03:19:09.028Z,2.69
2018-12-13T03:21:13.947Z,2.72
2018-12-13T03:23:22.632Z,2.73
2018-12-13T03:25:34.515Z,2.93
2018-12-13T03:27:39.427Z,2.70
2018-12-13T03:29:44.358Z,2.78
2018-12-13T03:31:49.352Z,2.78
2018-12-13T03:33:53.884Z,2.68
2018-12-13T03:36:01.521Z,2.52
2018-12-13T03:38:06.912Z,2.58
2018-12-13T03:40:18.392Z,2.48
2018-12-13T03:42:38.247Z,2.52
2018-12-13T03:44:43.043Z,2.50
2018-12-13T03:46:54.968Z,2.47
2018-12-13T03:48:57.991Z,2.49
2018-12-13T03:51:03.059Z,2.49
2018-12-13T03:53:10.723Z,2.46
2018-12-13T03:55:18.775Z,2.36
2018-12-13T03:57:23.643Z,2.36
2018-12-13T03:59:28.482Z,2.51
2018-12-13T04:01:36.054Z,2.51
2018-12-13T04:03:44.274Z,2.43
2018-12-13T04:05:49.060Z,2.52
2018-12-13T04:07:56.644Z,2.60
2018-12-13T04:10:02.439Z,2.56
2018-12-13T04:12:07.692Z,2.67
2018-12-13T04:14:15.531Z,2.71
2018-12-13T04:16:20.365Z,2.66
2018-12-13T04:18:27.875Z,3.00
2018-12-13T04:20:32.933Z,2.79
2018-12-13T04:22:37.702Z,2.48
2018-12-13T04:24:45.317Z,2.65
2018-12-13T04:26:50.198Z,2.67
2018-12-13T04:28:54.915Z,2.63
2018-12-13T04:31:02.479Z,2.63
2018-12-13T04:33:07.539Z,2.70
2018-12-13T04:35:15.683Z,2.77
2018-12-13T04:37:23.280Z,2.74
2018-12-13T04:39:31.348Z,2.69
2018-12-13T04:41:34.195Z,3.08
2018-12-13T04:43:42.113Z,3.02
2018-12-13T04:45:50.069Z,2.97
2018-12-13T04:48:01.819Z,3.02
2018-12-13T04:50:07.001Z,2.93
2018-12-13T04:52:14.493Z,2.84
2018-12-13T04:54:26.296Z,2.98
2018-12-13T04:56:31.274Z,2.81
2018-12-13T04:58:36.027Z,2.78
2018-12-13T05:00:43.503Z,2.68
2018-12-13T05:02:51.299Z,2.69
2018-12-13T05:04:59.067Z,2.92
2018-12-13T05:07:04.151Z,2.81
2018-12-13T05:09:11.547Z,2.95
2018-12-13T05:11:19.143Z,2.74
2018-12-13T05:13:22.448Z,2.94
2018-12-13T05:15:30.663Z,3.06
2018-12-13T05:17:33.539Z,2.87
2018-12-13T05:19:41.379Z,2.60
2018-12-13T05:21:53.131Z,3.08
2018-12-13T05:24:01.054Z,2.90
2018-12-13T05:26:09.036Z,3.04
2018-12-13T05:28:16.964Z,2.75
2018-12-13T05:30:21.915Z,2.70
2018-12-13T05:32:29.711Z,2.79
2018-12-13T05:34:35.532Z,2.71
2018-12-13T05:36:43.131Z,2.77
2018-12-13T05:38:50.843Z,2.66
2018-12-13T05:40:59.514Z,2.73
2018-12-13T05:43:07.307Z,2.70
2018-12-13T05:45:15.006Z,2.70
2018-12-13T05:47:19.691Z,2.74
2018-12-13T05:49:22.554Z,2.69
2018-12-13T05:51:27.261Z,2.72
2018-12-13T05:53:31.896Z,2.71
2018-12-13T05:55:36.722Z,2.68
2018-12-13T05:57:44.504Z,2.83
2018-12-13T05:59:52.188Z,2.87
2018-12-13T06:01:57.173Z,2.76
2018-12-13T06:04:01.892Z,2.68
2018-12-13T06:06:06.523Z,2.74
2018-12-13T06:08:11.643Z,2.64
2018-12-13T06:10:19.036Z,2.66
2018-12-13T06:12:23.711Z,2.68
2018-12-13T06:14:28.507Z,2.76
2018-12-13T06:16:33.311Z,2.84
2018-12-13T06:18:41.152Z,2.76
2018-12-13T06:20:49.146Z,2.75
2018-12-13T06:22:56.443Z,2.90
2018-12-13T06:25:05.856Z,2.79
2018-12-13T06:27:14.315Z,2.84
2018-12-13T06:29:18.819Z,2.81
2018-12-13T06:31:26.478Z,2.88
2018-12-13T06:33:31.486Z,2.81
2018-12-13T06:35:36.239Z,2.86
2018-12-13T06:37:40.977Z,2.89
2018-12-13T06:39:49.498Z,2.90
2018-12-13T06:41:52.599Z,2.89
2018-12-13T06:43:57.446Z,2.89
2018-12-13T06:46:02.221Z,2.88
2018-12-13T06:48:09.992Z,3.13
2018-12-13T06:50:21.642Z,3.00
2018-12-13T06:52:26.447Z,2.93
2018-12-13T06:54:34.067Z,2.99
2018-12-13T06:56:41.605Z,2.94
2018-12-13T06:58:49.194Z,3.10
2018-12-13T07:00:56.609Z,3.30
2018-12-13T07:03:04.023Z,3.33
2018-12-13T07:05:08.756Z,3.38
2018-12-13T07:07:13.439Z,3.13
2018-12-13T07:09:21.698Z,3.16
2018-12-13T07:11:29.118Z,3.21
2018-12-13T07:13:33.879Z,3.24
2018-12-13T07:15:41.315Z,3.15
2018-12-13T07:17:45.798Z,3.17
2018-12-13T07:19:53.388Z,3.09
2018-12-13T07:21:58.222Z,3.09
2018-12-13T07:24:10.062Z,3.16
2018-12-13T07:26:15.131Z,3.19
2018-12-13T07:28:20.035Z,3.14
2018-12-13T07:30:25.186Z,3.11
2018-12-13T07:32:32.843Z,3.12
2018-12-13T07:34:37.535Z,3.13
2018-12-13T07:36:42.227Z,3.15
2018-12-13T07:38:50.055Z,3.25
2018-12-13T07:40:55.015Z,3.35
2018-12-13T07:42:59.827Z,3.15
2018-12-13T07:45:05.159Z,3.13
2018-12-13T07:47:09.503Z,3.13
2018-12-13T07:49:21.039Z,3.17
2018-12-13T07:51:32.762Z,3.10
2018-12-13T07:53:40.459Z,3.40
2018-12-13T07:55:48.103Z,3.27
2018-12-13T07:57:53.415Z,3.45
2018-12-13T08:00:01.836Z,3.28
2018-12-13T08:02:09.457Z,3.16
2018-12-13T08:04:17.580Z,3.21
2018-12-13T08:06:25.622Z,3.28
2018-12-13T08:08:37.123Z,3.25
2018-12-13T08:10:45.131Z,3.25
2018-12-13T08:12:52.627Z,3.27
2018-12-13T08:14:57.483Z,3.26
2018-12-13T08:17:09.371Z,3.21
2018-12-13T08:19:21.212Z,3.39
2018-12-13T08:21:29.219Z,3.27
2018-12-13T08:23:34.175Z,3.34
2018-12-13T08:25:41.911Z,3.40
2018-12-13T08:27:46.875Z,3.32
2018-12-13T08:29:54.534Z,3.37
2018-12-13T08:31:59.087Z,3.68
2018-12-13T08:34:03.978Z,3.63
2018-12-13T08:36:11.962Z,3.64
2018-12-13T08:38:17.390Z,3.59
2018-12-13T08:40:18.838Z,3.56
2018-12-13T08:42:32.763Z,3.62
2018-12-13T08:44:40.687Z,3.58
2018-12-13T08:46:45.903Z,3.68
2018-12-13T08:48:50.400Z,3.69
2018-12-13T08:50:58.569Z,3.86
2018-12-13T08:53:06.751Z,3.72
2018-12-13T08:55:14.794Z,3.71
2018-12-13T08:57:22.702Z,3.69
2018-12-13T08:59:30.379Z,3.67
2018-12-13T09:01:35.186Z,3.67
2018-12-13T09:03:43.743Z,3.88
2018-12-13T09:05:48.592Z,4.03
2018-12-13T09:07:56.722Z,3.99
2018-12-13T09:10:02.046Z,3.83
2018-12-13T09:12:09.419Z,4.02
2018-12-13T09:14:17.262Z,3.97
2018-12-13T09:16:31.315Z,4.03
2018-12-13T09:18:35.339Z,3.95
2018-12-13T09:20:43.040Z,3.92
2018-12-13T09:22:51.799Z,3.96
2018-12-13T09:24:56.598Z,4.03
2018-12-13T09:27:04.217Z,4.06
2018-12-13T09:29:11.895Z,3.90
2018-12-13T09:31:19.951Z,4.30
2018-12-13T09:33:27.435Z,4.32
2018-12-13T09:35:35.443Z,4.29
2018-12-13T09:37:47.429Z,4.28
2018-12-13T09:39:53.171Z,4.15
2018-12-13T09:42:01.199Z,4.25
2018-12-13T09:44:11.111Z,4.33
2018-12-13T09:46:18.845Z,4.31
2018-12-13T09:48:23.971Z,4.16
2018-12-13T09:50:31.483Z,4.21
2018-12-13T09:52:36.175Z,4.19
2018-12-13T09:58:54.866Z,4.20
2018-12-13T10:03:06.216Z,4.33
2018-12-13T10:11:24.207Z,4.28
2018-12-13T10:15:35.730Z,4.47
2018-12-13T10:17:47.442Z,4.47
2018-12-13T10:19:55.269Z,4.47
2018-12-13T10:22:03.278Z,4.49
2018-12-13T10:24:12.995Z,4.42
2018-12-13T10:26:20.714Z,4.60
2018-12-13T10:28:28.639Z,4.44
2018-12-13T10:30:36.630Z,4.36
2018-12-13T10:32:44.384Z,4.24
2018-12-13T10:34:49.383Z,4.11
2018-12-13T10:36:57.562Z,4.28
2018-12-13T10:39:06.479Z,4.36
2018-12-13T10:41:14.559Z,4.18
2018-12-13T10:43:19.664Z,4.27
2018-12-13T10:45:31.355Z,4.24
2018-12-13T10:47:39.463Z,4.20
2018-12-13T10:49:47.028Z,4.18
2018-12-13T10:51:54.675Z,4.20
2018-12-13T10:54:06.384Z,4.29
2018-12-13T10:56:11.589Z,4.27
2018-12-13T10:58:19.845Z,4.27
2018-12-13T11:00:36.231Z,4.22
2018-12-13T11:03:01.423Z,4.38
2018-12-13T11:05:09.039Z,4.32
2018-12-13T11:07:16.937Z,4.38
2018-12-13T11:09:28.782Z,4.35
2018-12-13T11:11:33.786Z,4.36
2018-12-13T11:13:41.542Z,4.45
2018-12-13T11:15:49.483Z,4.47
2018-12-13T11:17:57.287Z,4.50
2018-12-13T11:20:05.222Z,4.64
2018-12-13T11:22:10.092Z,4.62
2018-12-13T11:24:24.922Z,4.60
2018-12-13T11:26:32.337Z,4.58
2018-12-13T11:28:52.480Z,4.56
2018-12-13T11:31:00.208Z,4.52
2018-12-13T11:33:08.155Z,4.53
2018-12-13T11:35:13.234Z,4.51
2018-12-13T11:37:22.011Z,4.56
2018-12-13T11:39:30.122Z,4.41
2018-12-13T11:41:34.837Z,4.45
2018-12-13T11:43:39.579Z,4.53
2018-12-13T11:45:48.229Z,4.41
2018-12-13T11:47:56.563Z,4.58
2018-12-13T11:50:03.550Z,4.55
2018-12-13T11:52:11.092Z,4.43
2018-12-13T11:54:23.309Z,4.46
2018-12-13T11:56:31.283Z,4.55
2018-12-13T11:58:39.664Z,4.55
2018-12-13T12:00:47.255Z,4.60
2018-12-13T12:02:55.223Z,4.68
2018-12-13T12:05:04.211Z,4.56
2018-12-13T12:07:08.795Z,4.40
2018-12-13T12:09:16.535Z,4.48
2018-12-13T12:11:21.339Z,4.46
2018-12-13T12:13:26.355Z,4.62
2018-12-13T12:15:31.524Z,4.54
2018-12-13T12:17:36.279Z,4.45
2018-12-13T12:19:41.084Z,4.44
2018-12-13T12:21:48.962Z,4.39
2018-12-13T12:23:57.027Z,4.37
2018-12-13T12:26:04.684Z,4.51
2018-12-13T12:30:16.258Z,4.17
2018-12-13T12:32:24.201Z,4.28
2018-12-13T12:34:29.119Z,4.44
2018-12-13T12:36:37.147Z,4.33
2018-12-13T12:38:42.022Z,4.18
2018-12-13T12:40:49.955Z,4.39
2018-12-13T12:42:58.092Z,4.32
2018-12-13T12:45:06.151Z,4.29
2018-12-13T12:47:13.870Z,4.18
2018-12-13T12:49:21.816Z,4.25
2018-12-13T12:51:29.619Z,4.12
2018-12-13T12:53:37.841Z,4.16
2018-12-13T12:55:46.440Z,4.24
2018-12-13T12:57:54.223Z,4.22
2018-12-13T12:59:59.075Z,4.36
2018-12-13T13:02:06.866Z,4.16
2018-12-13T13:04:14.839Z,4.21
2018-12-13T13:06:22.423Z,4.14
2018-12-13T13:08:30.551Z,4.30
2018-12-13T13:10:38.840Z,4.46
2018-12-13T13:12:46.387Z,4.38
2018-12-13T13:14:54.314Z,4.20
2018-12-13T13:17:02.050Z,4.24
2018-12-13T13:19:06.887Z,4.21
2018-12-13T13:21:14.841Z,4.15
2018-12-13T13:23:22.592Z,4.21
2018-12-13T13:25:30.433Z,4.19
2018-12-13T13:27:38.247Z,4.01
2018-12-13T13:29:46.332Z,3.96
2018-12-13T13:31:50.843Z,4.30
2018-12-13T13:33:58.778Z,4.05
2018-12-13T13:36:07.459Z,4.07
2018-12-13T13:42:25.775Z,4.03
2018-12-13T13:46:39.307Z,4.16
2018-12-13T13:50:50.667Z,4.00
2018-12-13T13:53:04.123Z,4.05
2018-12-13T13:55:08.985Z,4.09
2018-12-13T13:57:16.794Z,4.26
2018-12-13T13:59:24.638Z,4.17
2018-12-13T14:01:32.383Z,4.04
2018-12-13T14:03:40.376Z,4.03
2018-12-13T14:05:48.148Z,4.07
2018-12-13T14:07:55.937Z,4.02
2018-12-13T14:10:01.012Z,3.90
2018-12-13T14:12:12.751Z,4.05
2018-12-13T14:14:20.633Z,4.03
2018-12-13T14:16:32.555Z,4.04
2018-12-13T14:18:44.572Z,4.00
2018-12-13T14:20:54.265Z,3.99
2018-12-13T14:23:02.362Z,3.93
2018-12-13T14:25:10.075Z,4.06
2018-12-13T14:27:18.075Z,3.95
2018-12-13T14:29:22.866Z,3.77
2018-12-13T14:31:30.867Z,3.93
2018-12-13T14:33:38.619Z,3.98
2018-12-13T14:35:46.494Z,3.94
2018-12-13T14:37:58.082Z,3.96
2018-12-13T14:40:06.467Z,3.98
2018-12-13T14:42:14.088Z,4.03
2018-12-13T14:44:21.895Z,4.03
2018-12-13T14:46:27.121Z,3.97
2018-12-13T14:48:32.083Z,3.85
2018-12-13T14:50:36.890Z,3.75
2018-12-13T14:52:44.483Z,3.89
2018-12-13T14:54:52.426Z,4.02
2018-12-13T14:57:00.471Z,3.85
2018-12-13T14:59:03.587Z,3.88
2018-12-13T15:01:08.329Z,3.74
2018-12-13T15:03:15.911Z,3.95
2018-12-13T15:05:23.983Z,3.84
2018-12-13T15:07:32.099Z,3.84
2018-12-13T15:09:40.099Z,3.78
2018-12-13T15:11:47.617Z,3.79
2018-12-13T15:13:55.615Z,3.76
2018-12-13T15:16:03.605Z,3.87
2018-12-13T15:18:11.392Z,3.71
2018-12-13T15:20:20.063Z,3.72
2018-12-13T15:22:27.939Z,3.75
2018-12-13T15:24:32.821Z,3.73
2018-12-13T15:26:40.463Z,3.60
2018-12-13T15:28:48.051Z,3.75
2018-12-13T15:30:55.887Z,3.62
2018-12-13T15:33:00.954Z,3.56
2018-12-13T15:35:08.712Z,3.56
2018-12-13T15:37:16.626Z,3.61
2018-12-13T15:39:22.271Z,3.58
2018-12-13T15:41:30.307Z,3.57
2018-12-13T15:43:39.161Z,3.51
2018-12-13T15:45:46.642Z,3.69
2018-12-13T15:47:54.391Z,3.48
2018-12-13T15:50:03.767Z,3.44
2018-12-13T15:52:11.115Z,3.40
2018-12-13T15:56:25.011Z,3.40
2018-12-13T15:58:32.674Z,3.46
2018-12-13T16:00:40.279Z,3.49
2018-12-13T16:02:48.319Z,3.51
2018-12-13T16:04:56.142Z,3.38
2018-12-13T16:07:04.114Z,3.39
2018-12-13T16:09:08.895Z,3.30
2018-12-13T16:11:16.518Z,3.23
2018-12-13T16:13:24.232Z,3.23
2018-12-13T16:15:32.251Z,3.15
2018-12-13T16:17:39.996Z,3.26
2018-12-13T16:19:47.675Z,3.18
2018-12-13T16:21:55.612Z,3.21
2018-12-13T16:24:07.298Z,3.17
2018-12-13T16:26:15.018Z,3.08
2018-12-13T16:28:22.788Z,3.01
2018-12-13T16:30:27.752Z,3.22
2018-12-13T16:32:39.070Z,3.27
2018-12-13T16:34:47.159Z,3.24
2018-12-13T16:36:54.633Z,3.11
2018-12-13T16:39:05.090Z,2.95
2018-12-13T16:41:13.086Z,2.94
2018-12-13T16:43:20.860Z,2.97
2018-12-13T16:45:25.880Z,2.90
2018-12-13T16:47:33.864Z,3.00
2018-12-13T16:49:38.899Z,3.01
2018-12-13T16:51:50.779Z,2.86
2018-12-13T16:53:58.859Z,3.03
2018-12-13T16:56:06.211Z,3.10
2018-12-13T16:58:13.698Z,3.03
2018-12-13T17:00:21.650Z,3.10
2018-12-13T17:02:28.972Z,3.07
2018-12-13T17:04:36.708Z,2.99
2018-12-13T17:06:44.373Z,2.84
2018-12-13T17:08:52.175Z,2.95
2018-12-13T17:11:00.466Z,2.92
2018-12-13T17:13:04.832Z,2.83
2018-12-13T17:15:09.860Z,2.99
2018-12-13T17:17:17.603Z,2.81
2018-12-13T17:19:25.227Z,2.87
2018-12-13T17:21:30.514Z,2.83
2018-12-13T17:23:38.197Z,2.88
2018-12-13T17:25:45.946Z,2.92
2018-12-13T17:27:53.995Z,2.79
2018-12-13T17:30:01.827Z,2.72
2018-12-13T17:32:09.491Z,2.70
2018-12-13T17:34:14.508Z,2.75
2018-12-13T17:36:22.131Z,2.71
2018-12-13T17:38:29.894Z,3.01
2018-12-13T17:40:37.971Z,2.96
2018-12-13T17:42:42.967Z,2.88
2018-12-13T17:44:50.799Z,3.04
2018-12-13T17:46:59.062Z,3.02
2018-12-13T17:49:10.991Z,2.99
2018-12-13T17:51:17.163Z,2.90
2018-12-13T17:53:25.551Z,2.76
2018-12-13T17:55:30.811Z,2.80
2018-12-13T17:57:38.656Z,2.87
2018-12-13T17:59:43.535Z,2.65
2018-12-13T18:01:51.265Z,2.72
2018-12-13T18:03:52.870Z,2.66
2018-12-13T18:05:58.871Z,2.63
2018-12-13T18:08:04.035Z,2.66
2018-12-13T18:10:11.947Z,2.80
2018-12-13T18:14:55.539Z,3.00
2018-12-13T18:17:07.707Z,2.78
2018-12-13T18:19:15.487Z,2.65
2018-12-13T18:21:20.334Z,2.67
2018-12-13T18:23:25.086Z,2.81
2018-12-13T18:25:30.471Z,2.90
2018-12-13T18:27:35.402Z,2.71
2018-12-13T18:29:48.783Z,2.64
2018-12-13T18:31:53.881Z,2.70
2018-12-13T18:34:01.817Z,2.59
2018-12-13T18:36:09.694Z,2.57
2018-12-13T18:38:17.898Z,2.77
2018-12-13T18:40:25.424Z,2.66
2018-12-13T18:42:38.195Z,2.70
2018-12-13T18:44:43.091Z,2.70
2018-12-13T18:46:49.084Z,2.56
2018-12-13T18:48:57.515Z,2.60
2018-12-13T18:51:09.177Z,2.58
2018-12-13T18:53:16.580Z,2.57
2018-12-13T18:55:24.673Z,2.60
2018-12-13T18:57:29.433Z,2.63
2018-12-13T18:59:34.120Z,2.63
2018-12-13T19:01:41.695Z,2.56
2018-12-13T19:03:49.666Z,2.61
2018-12-13T19:06:01.419Z,2.75
2018-12-13T19:08:14.268Z,2.47
2018-12-13T19:10:23.050Z,2.80
2018-12-13T19:12:30.584Z,2.63
2018-12-13T19:14:39.374Z,2.55
2018-12-13T19:16:47.345Z,2.46
2018-12-13T19:18:56.031Z,2.43
2018-12-13T19:21:04.607Z,2.53
2018-12-13T19:23:18.836Z,2.49
2018-12-13T19:25:30.061Z,2.54
2018-12-13T19:27:39.590Z,2.50
2018-12-13T19:29:47.731Z,2.57
2018-12-13T19:34:52.560Z,2.47
2018-12-13T19:37:04.973Z,2.57
2018-12-13T19:39:13.259Z,2.71
2018-12-13T19:41:22.336Z,2.56
2018-12-13T19:43:30.851Z,2.51
2018-12-13T19:45:39.060Z,2.58
2018-12-13T19:47:47.901Z,2.63
2018-12-13T19:49:56.679Z,2.37
2018-12-13T19:52:04.678Z,2.57
2018-12-13T19:54:15.830Z,2.50
2018-12-13T19:56:41.039Z,2.31
2018-12-13T19:58:52.657Z,2.46
2018-12-13T20:01:14.536Z,2.52
2018-12-13T20:06:01.343Z,2.44
2018-12-13T20:08:30.524Z,2.23
2018-12-13T20:10:42.228Z,2.27
2018-12-13T20:12:57.510Z,2.33
2018-12-13T20:15:09.892Z,2.21
2018-12-13T20:17:14.827Z,2.30
2018-12-13T20:19:27.026Z,2.25
2018-12-13T20:21:42.545Z,2.47
2018-12-13T20:23:58.771Z,2.12
2018-12-13T20:26:19.682Z,2.14
2018-12-13T20:28:35.389Z,2.40
2018-12-13T20:30:46.033Z,2.25
2018-12-13T20:32:54.869Z,2.24
2018-12-13T20:35:16.122Z,2.16
2018-12-13T20:37:28.000Z,2.34
2018-12-13T20:39:38.409Z,2.27
2018-12-13T20:41:48.444Z,2.39
2018-12-13T20:44:09.339Z,2.19
2018-12-13T20:46:15.026Z,2.16
2018-12-13T20:48:21.283Z,2.05
2018-12-13T20:50:27.428Z,2.10
2018-12-13T20:52:37.078Z,2.21
2018-12-13T20:54:47.195Z,2.31
2018-12-13T20:56:53.065Z,2.23
2018-12-13T20:58:58.015Z,2.24
2018-12-13T21:01:05.623Z,2.09
2018-12-13T21:03:13.725Z,2.10
2018-12-13T21:05:18.825Z,2.08
2018-12-13T21:07:29.706Z,1.97
2018-12-13T21:09:37.571Z,1.92
2018-12-13T21:11:45.635Z,2.13
2018-12-13T21:13:50.735Z,1.91
2018-12-13T21:15:58.286Z,2.10
2018-12-13T21:18:05.950Z,2.13
2018-12-13T21:20:13.754Z,1.93
2018-12-13T21:22:18.507Z,1.91
2018-12-13T21:24:24.584Z,2.07
2018-12-13T21:26:32.419Z,1.96
2018-12-13T21:28:37.590Z,1.98
2018-12-13T21:30:45.290Z,1.79
2018-12-13T21:32:53.720Z,1.97
2018-12-13T21:35:03.608Z,2.04
2018-12-13T21:37:11.857Z,1.96
2018-12-13T21:39:20.414Z,1.90
2018-12-13T21:41:25.159Z,1.95
2018-12-13T21:43:33.288Z,2.10
2018-12-13T21:45:44.932Z,1.92
2018-12-13T21:47:53.679Z,1.85
2018-12-13T21:49:59.955Z,1.81
2018-12-13T21:52:04.903Z,1.78
2018-12-13T21:54:09.859Z,1.63
2018-12-13T21:56:14.664Z,1.58
2018-12-13T21:58:19.152Z,1.69
2018-12-13T22:00:24.186Z,1.54
2018-12-13T22:02:29.391Z,1.58
2018-12-13T22:04:33.821Z,1.64
2018-12-13T22:06:38.723Z,1.46
2018-12-13T22:08:43.527Z,1.41
2018-12-13T22:10:48.287Z,1.50
2018-12-13T22:12:53.195Z,1.46
2018-12-13T22:17:01.988Z,1.46
2018-12-13T22:19:06.680Z,1.52
2018-12-13T22:21:11.419Z,1.08
2018-12-13T22:23:16.022Z,1.24
2018-12-13T22:25:27.739Z,1.25
2018-12-13T22:27:32.679Z,1.21
2018-12-13T22:29:37.510Z,0.87
2018-12-13T22:31:42.381Z,1.37
2018-12-13T22:33:50.327Z,0.99
2018-12-13T22:35:55.663Z,1.04
2018-12-13T22:38:00.155Z,1.11
2018-12-13T22:40:08.135Z,1.23
2018-12-13T22:42:12.909Z,0.96
2018-12-13T22:44:25.077Z,1.03
2018-12-13T22:46:30.035Z,0.90
2018-12-13T22:48:38.062Z,0.87
2018-12-13T22:50:45.567Z,1.04
2018-12-13T22:52:53.451Z,1.01
2018-12-13T22:54:58.319Z,1.07
2018-12-13T22:57:03.487Z,0.99
2018-12-13T22:59:08.067Z,0.81
2018-12-13T23:01:15.936Z,0.75
2018-12-13T23:03:21.266Z,0.80
2018-12-13T23:05:26.791Z,0.73
2018-12-13T23:07:31.751Z,0.95
2018-12-13T23:09:39.562Z,0.92
2018-12-13T23:11:47.260Z,0.89
2018-12-13T23:13:52.459Z,0.73
2018-12-13T23:15:57.326Z,0.78
2018-12-13T23:18:05.205Z,0.74
2018-12-13T23:20:10.159Z,0.66
2018-12-13T23:22:14.990Z,0.62
2018-12-13T23:24:22.836Z,0.61
2018-12-13T23:26:26.142Z,0.60
2018-12-13T23:28:33.664Z,0.67
2018-12-13T23:30:38.491Z,0.61
2018-12-13T23:32:43.322Z,0.68
2018-12-13T23:34:50.991Z,0.50
2018-12-13T23:36:55.723Z,0.50
2018-12-13T23:39:04.249Z,0.54
2018-12-13T23:41:09.397Z,0.56
2018-12-13T23:43:14.244Z,0.40
2018-12-13T23:45:22.110Z,0.49
2018-12-13T23:47:27.098Z,0.58
2018-12-13T23:49:32.071Z,0.44
2018-12-13T23:51:39.588Z,0.45
2018-12-13T23:53:44.731Z,0.58
2018-12-13T23:55:52.483Z,0.44
2018-12-13T23:57:59.890Z,0.39
